Time,TemperatureF,DewpointF,PressureIn,WindDirection,WindDirectionDegrees,WindSpeedMPH,WindSpeedGustMPH,Humidity,HourlyPrecipIn,Conditions,Clouds,dailyrainin,SoftwareType,DateUTC
2013-05-12 00:01:00,73.3,67.1,30.04,North,-999,0.0,0.0,81,0.01,,,-99.99,WeatherLink 5.5,2013-05-12 04:01:00,
2013-05-12 00:11:00,73.1,-99.9,30.04,North,-999,0.0,0.0,-999,0.01,,,-99.99,WeatherLink 5.5,2013-05-12 04:11:00,
2013-05-12 00:16:00,72.9,-99.9,30.05,North,-999,0.0,0.0,-999,0.01,,,-99.99,WeatherLink 5.5,2013-05-12 04:16:00,
2013-05-12 00:21:00,72.9,-99.9,30.04,North,0,0.0,2.0,-999,0.01,,,-99.99,WeatherLink 5.5,2013-05-12 04:21:00,
2013-05-12 00:26:00,72.9,-99.9,30.04,North,0,0.0,3.0,-999,0.01,,,-99.99,WeatherLink 5.5,2013-05-12 04:26:00,
2013-05-12 00:36:00,73.0,-99.9,30.04,North,-999,0.0,0.0,-999,0.01,,,-99.99,WeatherLink 5.5,2013-05-12 04:36:00,
2013-05-12 00:40:00,73.0,-99.9,30.04,North,-999,0.0,0.0,-999,0.01,,,-99.99,WeatherLink 5.5,2013-05-12 04:40:00,
2013-05-12 00:41:00,73.1,-99.9,30.04,North,-999,0.0,0.0,-999,0.01,,,-99.99,WeatherLink 5.5,2013-05-12 04:41:00,
2013-05-12 00:51:00,72.8,-99.9,30.03,North,-999,0.0,0.0,-999,0.01,,,-99.99,WeatherLink 5.5,2013-05-12 04:51:00,
2013-05-12 01:01:00,72.7,66.5,30.04,North,-999,0.0,0.0,81,0.01,,,-99.99,WeatherLink 5.5,2013-05-12 05:01:00,
2013-05-12 01:06:00,72.8,-99.9,30.04,North,-999,0.0,0.0,-999,0.01,,,-99.99,WeatherLink 5.5,2013-05-12 05:06:00,
2013-05-12 01:16:00,72.9,-99.9,30.03,North,-999,0.0,0.0,-999,0.00,,,-99.99,WeatherLink 5.5,2013-05-12 05:16:00,
2013-05-12 01:21:00,72.8,-99.9,30.03,North,-999,0.0,0.0,-999,0.00,,,-99.99,WeatherLink 5.5,2013-05-12 05:21:00,
2013-05-12 01:31:00,72.5,-99.9,30.03,North,-999,0.0,0.0,-999,0.00,,,-99.99,WeatherLink 5.5,2013-05-12 05:31:00,
2013-05-12 01:41:00,72.4,-99.9,30.02,North,-999,0.0,0.0,-999,0.00,,,-99.99,WeatherLink 5.5,2013-05-12 05:41:00,
2013-05-12 01:51:00,72.2,-99.9,30.02,North,-999,0.0,0.0,-999,0.00,,,-99.99,WeatherLink 5.5,2013-05-12 05:51:00,
2013-05-12 01:56:00,72.2,-99.9,30.02,North,-999,0.0,0.0,-999,0.00,,,-99.99,WeatherLink 5.5,2013-05-12 05:56:00,
2013-05-12 02:06:00,72.4,-99.9,30.01,North,-999,0.0,0.0,-999,0.00,,,-99.99,WeatherLink 5.5,2013-05-12 06:06:00,
2013-05-12 02:11:00,72.4,-99.9,30.01,North,-999,0.0,0.0,-999,0.00,,,-99.99,WeatherLink 5.5,2013-05-12 06:11:00,
2013-05-12 02:21:00,72.5,-99.9,30.00,North,-999,0.0,0.0,-999,0.00,,,-99.99,WeatherLink 5.5,2013-05-12 06:21:00,
2013-05-12 02:26:00,72.6,-99.9,30.00,North,-999,0.0,0.0,-999,0.00,,,-99.99,WeatherLink 5.5,2013-05-12 06:26:00,
2013-05-12 02:36:00,72.4,-99.9,29.99,North,-999,0.0,0.0,-999,0.01,,,-99.99,WeatherLink 5.5,2013-05-12 06:36:00,
2013-05-12 02:46:00,72.3,-99.9,29.99,North,-999,0.0,0.0,-999,0.01,,,-99.99,WeatherLink 5.5,2013-05-12 06:46:00,
2013-05-12 02:51:00,72.3,-99.9,29.99,North,-999,0.0,0.0,-999,0.01,,,-99.99,WeatherLink 5.5,2013-05-12 06:51:00,
2013-05-12 03:01:00,72.2,-99.9,29.99,North,-999,0.0,0.0,-999,0.01,,,-99.99,WeatherLink 5.5,2013-05-12 07:01:00,
2013-05-12 03:11:00,72.1,-99.9,29.99,North,-999,0.0,0.0,-999,0.01,,,-99.99,WeatherLink 5.5,2013-05-12 07:11:00,
2013-05-12 03:16:00,72.2,-99.9,29.99,North,-999,0.0,0.0,-999,0.01,,,-99.99,WeatherLink 5.5,2013-05-12 07:16:00,
2013-05-12 03:26:00,72.2,-99.9,29.99,North,-999,0.0,0.0,-999,0.01,,,-99.99,WeatherLink 5.5,2013-05-12 07:26:00,
2013-05-12 03:31:00,72.4,-99.9,29.99,North,-999,0.0,0.0,-999,0.00,,,-99.99,WeatherLink 5.5,2013-05-12 07:31:00,
2013-05-12 03:41:00,72.3,66.1,29.99,North,-999,0.0,0.0,81,0.00,,,-99.99,WeatherLink 5.5,2013-05-12 07:41:00,
2013-05-12 03:51:00,72.2,-99.9,29.98,North,-999,0.0,0.0,-999,0.00,,,-99.99,WeatherLink 5.5,2013-05-12 07:51:00,
2013-05-12 04:01:00,72.0,-99.9,29.98,North,-999,0.0,0.0,-999,0.00,,,-99.99,WeatherLink 5.5,2013-05-12 08:01:00,
2013-05-12 04:06:00,71.9,-99.9,29.98,North,-999,0.0,0.0,-999,0.00,,,-99.99,WeatherLink 5.5,2013-05-12 08:06:00,
2013-05-12 04:16:00,72.0,-99.9,29.98,North,-999,0.0,0.0,-999,0.00,,,-99.99,WeatherLink 5.5,2013-05-12 08:16:00,
2013-05-12 04:26:00,72.0,-99.9,29.97,North,-999,0.0,0.0,-999,0.00,,,-99.99,WeatherLink 5.5,2013-05-12 08:26:00,
2013-05-12 04:31:00,72.0,-99.9,29.97,North,-999,0.0,0.0,-999,0.01,,,-99.99,WeatherLink 5.5,2013-05-12 08:31:00,
2013-05-12 04:40:00,71.9,-99.9,29.96,North,-999,0.0,0.0,-999,0.01,,,-99.99,WeatherLink 5.5,2013-05-12 08:40:00,
2013-05-12 04:41:00,71.9,-99.9,29.97,North,-999,0.0,0.0,-999,0.01,,,-99.99,WeatherLink 5.5,2013-05-12 08:41:00,
2013-05-12 04:51:00,71.9,-99.9,29.96,North,-999,0.0,0.0,-999,0.01,,,-99.99,WeatherLink 5.5,2013-05-12 08:51:00,
2013-05-12 05:01:00,71.8,-99.9,29.97,North,-999,0.0,0.0,-999,0.01,,,-99.99,WeatherLink 5.5,2013-05-12 09:01:00,
2013-05-12 05:11:00,71.6,-99.9,29.97,North,-999,0.0,0.0,-999,0.01,,,-99.99,WeatherLink 5.5,2013-05-12 09:11:00,
2013-05-12 05:21:00,71.6,-99.9,29.97,North,-999,0.0,0.0,-999,0.01,,,-99.99,WeatherLink 5.5,2013-05-12 09:21:00,
2013-05-12 05:31:00,71.4,-99.9,29.96,North,-999,0.0,0.0,-999,0.00,,,-99.99,WeatherLink 5.5,2013-05-12 09:31:00,
2013-05-12 05:41:00,71.4,-99.9,29.96,North,-999,0.0,0.0,-999,0.00,,,-99.99,WeatherLink 5.5,2013-05-12 09:41:00,
2013-05-12 05:46:00,71.4,-99.9,29.96,North,-999,0.0,0.0,-999,0.00,,,-99.99,WeatherLink 5.5,2013-05-12 09:46:00,
2013-05-12 05:56:00,71.5,-99.9,29.95,North,-999,0.0,0.0,-999,0.00,,,-99.99,WeatherLink 5.5,2013-05-12 09:56:00,
2013-05-12 06:01:00,71.5,-99.9,29.95,North,-999,0.0,0.0,-999,0.00,,,-99.99,WeatherLink 5.5,2013-05-12 10:01:00,
2013-05-12 06:11:00,71.5,-99.9,29.95,North,-999,0.0,0.0,-999,0.00,,,-99.99,WeatherLink 5.5,2013-05-12 10:11:00,
2013-05-12 06:21:00,71.5,-99.9,29.95,North,-999,0.0,0.0,-999,0.00,,,-99.99,WeatherLink 5.5,2013-05-12 10:21:00,
2013-05-12 06:26:00,71.6,-99.9,29.95,North,-999,0.0,0.0,-999,0.00,,,-99.99,WeatherLink 5.5,2013-05-12 10:26:00,
2013-05-12 06:36:00,71.6,-99.9,29.94,North,0,0.0,4.0,-999,0.00,,,-99.99,WeatherLink 5.5,2013-05-12 10:36:00,
2013-05-12 06:46:00,71.9,-99.9,29.96,North,-999,0.0,0.0,-999,0.00,,,-99.99,WeatherLink 5.5,2013-05-12 10:46:00,
2013-05-12 06:51:00,72.0,-99.9,29.96,North,-999,0.0,0.0,-999,0.00,,,-99.99,WeatherLink 5.5,2013-05-12 10:51:00,
2013-05-12 07:01:00,72.3,-99.9,29.96,North,-999,0.0,0.0,-999,0.00,,,-99.99,WeatherLink 5.5,2013-05-12 11:01:00,
2013-05-12 07:11:00,72.5,-99.9,29.97,North,-999,0.0,0.0,-999,0.00,,,-99.99,WeatherLink 5.5,2013-05-12 11:11:00,
2013-05-12 07:16:00,72.7,-99.9,29.97,North,-999,0.0,0.0,-999,0.00,,,-99.99,WeatherLink 5.5,2013-05-12 11:16:00,
2013-05-12 07:26:00,73.1,-99.9,29.97,North,-999,0.0,0.0,-999,0.00,,,-99.99,WeatherLink 5.5,2013-05-12 11:26:00,
2013-05-12 07:36:00,73.8,-99.9,29.98,North,-999,0.0,0.0,-999,0.00,,,-99.99,WeatherLink 5.5,2013-05-12 11:36:00,
2013-05-12 07:41:00,74.2,-99.9,29.98,North,-999,0.0,0.0,-999,0.00,,,-99.99,WeatherLink 5.5,2013-05-12 11:41:00,
2013-05-12 07:51:00,75.1,-99.9,29.98,North,0,0.0,2.0,-999,0.00,,,-99.99,WeatherLink 5.5,2013-05-12 11:51:00,
2013-05-12 08:01:00,76.1,-99.9,29.99,East,90,0.0,1.0,-999,0.00,,,-99.99,WeatherLink 5.5,2013-05-12 12:01:00,
2013-05-12 08:06:00,76.5,-99.9,29.99,East,90,0.0,1.0,-999,0.00,,,-99.99,WeatherLink 5.5,2013-05-12 12:06:00,
2013-05-12 08:16:00,77.3,-99.9,29.99,ESE,112,0.0,5.0,-999,0.00,,,-99.99,WeatherLink 5.5,2013-05-12 12:16:00,
2013-05-12 08:26:00,77.9,-99.9,30.00,SE,135,0.0,5.0,-999,0.00,,,-99.99,WeatherLink 5.5,2013-05-12 12:26:00,
2013-05-12 08:36:00,78.8,-99.9,30.01,ESE,112,0.0,1.0,-999,0.00,,,-99.99,WeatherLink 5.5,2013-05-12 12:36:00,
2013-05-12 08:41:00,79.1,-99.9,30.01,South,180,0.0,4.0,-999,0.00,,,-99.99,WeatherLink 5.5,2013-05-12 12:41:00,
2013-05-12 08:51:00,79.6,-99.9,30.01,South,180,0.0,6.0,-999,0.00,,,-99.99,WeatherLink 5.5,2013-05-12 12:51:00,
2013-05-12 09:01:00,80.1,-99.9,30.01,SSW,202,1.0,6.0,-999,0.00,,,-99.99,WeatherLink 5.5,2013-05-12 13:01:00,
2013-05-12 09:06:00,80.4,-99.9,30.01,South,180,0.0,4.0,-999,0.00,,,-99.99,WeatherLink 5.5,2013-05-12 13:06:00,
2013-05-12 09:16:00,80.8,-99.9,30.01,SSW,202,1.0,7.0,-999,0.00,,,-99.99,WeatherLink 5.5,2013-05-12 13:16:00,
2013-05-12 09:21:00,81.3,-99.9,30.01,SSW,202,1.0,6.0,-999,0.00,,,-99.99,WeatherLink 5.5,2013-05-12 13:21:00,
2013-05-12 09:31:00,81.2,-99.9,30.00,SSW,202,2.0,9.0,-999,0.00,,,-99.99,WeatherLink 5.5,2013-05-12 13:31:00,
2013-05-12 09:41:00,81.8,-99.9,30.01,SSW,202,1.0,9.0,-999,0.00,,,-99.99,WeatherLink 5.5,2013-05-12 13:41:00,
2013-05-12 09:46:00,82.4,-99.9,30.01,South,180,2.0,9.0,-999,0.00,,,-99.99,WeatherLink 5.5,2013-05-12 13:46:00,
2013-05-12 09:56:00,83.2,-99.9,30.01,South,180,0.0,8.0,-999,0.00,,,-99.99,WeatherLink 5.5,2013-05-12 13:56:00,
2013-05-12 10:01:00,83.4,-99.9,30.00,South,180,3.0,9.0,-999,0.00,,,-99.99,WeatherLink 5.5,2013-05-12 14:01:00,
2013-05-12 10:11:00,83.6,-99.9,30.01,SSW,202,1.0,7.0,-999,0.00,,,-99.99,WeatherLink 5.5,2013-05-12 14:11:00,
2013-05-12 10:21:00,84.1,78.4,30.02,SSW,202,0.0,7.0,83,0.00,,,-99.99,WeatherLink 5.5,2013-05-12 14:21:00,
2013-05-12 10:31:00,84.9,84.9,30.01,SSW,202,2.0,6.0,100,0.00,,,-99.99,WeatherLink 5.5,2013-05-12 14:31:00,
2013-05-12 10:36:00,85.2,85.2,30.01,SSW,202,1.0,6.0,100,0.00,,,-99.99,WeatherLink 5.5,2013-05-12 14:36:00,
2013-05-12 10:46:00,84.9,84.9,30.02,SSW,202,3.0,10.0,100,0.00,,,-99.99,WeatherLink 5.5,2013-05-12 14:46:00,
2013-05-12 10:51:00,84.9,84.9,30.01,SSW,202,2.0,6.0,100,0.00,,,-99.99,WeatherLink 5.5,2013-05-12 14:51:00,
2013-05-12 11:01:00,85.7,85.7,30.01,South,180,2.0,12.0,100,0.00,,,-99.99,WeatherLink 5.5,2013-05-12 15:01:00,
2013-05-12 11:06:00,85.6,85.6,30.01,SSW,202,2.0,10.0,100,0.00,,,-99.99,WeatherLink 5.5,2013-05-12 15:06:00,
2013-05-12 11:16:00,86.6,86.6,30.01,SW,225,2.0,8.0,100,0.00,,,-99.99,WeatherLink 5.5,2013-05-12 15:16:00,
2013-05-12 11:21:00,86.4,86.4,30.01,SSW,202,3.0,9.0,100,0.00,,,-99.99,WeatherLink 5.5,2013-05-12 15:21:00,
2013-05-12 11:31:00,87.5,87.5,30.01,SSW,202,3.0,9.0,100,0.00,,,-99.99,WeatherLink 5.5,2013-05-12 15:31:00,
2013-05-12 11:41:00,86.9,86.9,30.01,SW,225,2.0,8.0,100,0.00,,,-99.99,WeatherLink 5.5,2013-05-12 15:41:00,
2013-05-12 11:51:00,87.8,87.8,30.01,SW,225,2.0,9.0,100,0.00,,,-99.99,WeatherLink 5.5,2013-05-12 15:51:00,
2013-05-12 12:01:00,88.4,88.4,30.02,SSW,202,3.0,9.0,100,0.00,,,-99.99,WeatherLink 5.5,2013-05-12 16:01:00,
2013-05-12 12:11:00,88.0,88.0,30.01,SSW,202,1.0,7.0,100,0.00,,,-99.99,WeatherLink 5.5,2013-05-12 16:11:00,
2013-05-12 12:21:00,89.1,89.1,30.01,WSW,247,3.0,8.0,100,0.00,,,-99.99,WeatherLink 5.5,2013-05-12 16:21:00,
2013-05-12 12:31:00,89.3,89.3,30.00,SSW,202,2.0,7.0,100,0.00,,,-99.99,WeatherLink 5.5,2013-05-12 16:31:00,
2013-05-12 12:41:00,90.0,90.0,30.00,SSW,202,0.0,3.0,100,0.00,,,-99.99,WeatherLink 5.5,2013-05-12 16:41:00,
2013-05-12 12:51:00,90.0,90.0,30.00,SSW,202,1.0,7.0,100,0.00,,,-99.99,WeatherLink 5.5,2013-05-12 16:51:00,
2013-05-12 12:56:00,90.1,90.1,30.00,SSW,202,3.0,8.0,100,0.00,,,-99.99,WeatherLink 5.5,2013-05-12 16:56:00,
2013-05-12 13:06:00,90.4,90.4,29.99,SSW,202,2.0,9.0,100,0.00,,,-99.99,WeatherLink 5.5,2013-05-12 17:06:00,
2013-05-12 13:16:00,89.5,89.5,29.99,SSW,202,1.0,5.0,100,0.00,,,-99.99,WeatherLink 5.5,2013-05-12 17:16:00,
2013-05-12 13:26:00,90.8,90.8,29.98,SSW,202,1.0,5.0,100,0.00,,,-99.99,WeatherLink 5.5,2013-05-12 17:26:00,
2013-05-12 13:31:00,91.3,91.3,29.98,SSW,202,0.0,4.0,100,0.00,,,-99.99,WeatherLink 5.5,2013-05-12 17:31:00,
2013-05-12 13:41:00,91.1,91.1,29.97,SSE,157,1.0,8.0,100,0.00,,,-99.99,WeatherLink 5.5,2013-05-12 17:41:00,
2013-05-12 13:46:00,90.5,90.5,29.97,SSE,157,0.0,8.0,100,0.00,,,-99.99,WeatherLink 5.5,2013-05-12 17:46:00,
2013-05-12 13:56:00,90.2,90.2,29.97,SSE,157,0.0,4.0,100,0.00,,,-99.99,WeatherLink 5.5,2013-05-12 17:56:00,
2013-05-12 14:06:00,90.6,90.6,29.96,South,180,1.0,6.0,100,0.00,,,-99.99,WeatherLink 5.5,2013-05-12 18:06:00,
2013-05-12 14:16:00,90.7,90.7,29.95,SSE,157,0.0,8.0,100,0.00,,,-99.99,WeatherLink 5.5,2013-05-12 18:16:00,
2013-05-12 14:26:00,89.4,89.4,29.95,SSW,202,1.0,6.0,100,0.00,,,-99.99,WeatherLink 5.5,2013-05-12 18:26:00,
2013-05-12 14:31:00,89.8,89.8,29.94,South,180,1.0,6.0,100,0.00,,,-99.99,WeatherLink 5.5,2013-05-12 18:31:00,
2013-05-12 14:41:00,90.1,90.1,29.94,SSE,157,4.0,10.0,100,0.00,,,-99.99,WeatherLink 5.5,2013-05-12 18:41:00,
2013-05-12 14:46:00,90.3,90.3,29.94,SSE,157,3.0,11.0,100,0.00,,,-99.99,WeatherLink 5.5,2013-05-12 18:46:00,
2013-05-12 14:56:00,89.7,89.7,29.94,SE,135,3.0,11.0,100,0.00,,,-99.99,WeatherLink 5.5,2013-05-12 18:56:00,
2013-05-12 15:01:00,88.8,88.8,29.94,SE,135,2.0,9.0,100,0.00,,,-99.99,WeatherLink 5.5,2013-05-12 19:01:00,
2013-05-12 15:11:00,88.1,88.1,29.94,SSE,157,5.0,11.0,100,0.00,,,-99.99,WeatherLink 5.5,2013-05-12 19:11:00,
2013-05-12 15:16:00,87.6,87.6,29.94,SSE,157,5.0,12.0,100,0.00,,,-99.99,WeatherLink 5.5,2013-05-12 19:16:00,
2013-05-12 15:26:00,87.4,87.4,29.94,South,180,3.0,9.0,100,0.00,,,-99.99,WeatherLink 5.5,2013-05-12 19:26:00,
2013-05-12 15:36:00,88.6,88.6,29.93,SSE,157,2.0,8.0,100,0.00,,,-99.99,WeatherLink 5.5,2013-05-12 19:36:00,
2013-05-12 15:46:00,90.1,90.1,29.93,SSE,157,3.0,10.0,100,0.00,,,-99.99,WeatherLink 5.5,2013-05-12 19:46:00,
2013-05-12 15:51:00,89.4,89.4,29.92,SE,135,3.0,8.0,100,0.00,,,-99.99,WeatherLink 5.5,2013-05-12 19:51:00,
2013-05-12 16:01:00,89.3,89.3,29.92,SSE,157,4.0,10.0,100,0.00,,,-99.99,WeatherLink 5.5,2013-05-12 20:01:00,
2013-05-12 16:06:00,89.6,89.6,29.92,SSE,157,6.0,12.0,100,0.00,,,-99.99,WeatherLink 5.5,2013-05-12 20:06:00,
2013-05-12 16:16:00,89.4,89.4,29.92,SSE,157,2.0,8.0,100,0.00,,,-99.99,WeatherLink 5.5,2013-05-12 20:16:00,
2013-05-12 16:21:00,90.0,90.0,29.92,SSE,157,3.0,11.0,100,0.00,,,-99.99,WeatherLink 5.5,2013-05-12 20:21:00,
2013-05-12 16:31:00,90.1,90.1,29.92,South,180,6.0,13.0,100,0.00,,,-99.99,WeatherLink 5.5,2013-05-12 20:31:00,
2013-05-12 16:36:00,90.1,90.1,29.92,South,180,7.0,13.0,100,0.00,,,-99.99,WeatherLink 5.5,2013-05-12 20:36:00,
2013-05-12 16:46:00,89.7,89.7,29.93,South,180,5.0,12.0,100,0.00,,,-99.99,WeatherLink 5.5,2013-05-12 20:46:00,
2013-05-12 16:51:00,89.6,89.6,29.93,SSE,157,6.0,13.0,100,0.00,,,-99.99,WeatherLink 5.5,2013-05-12 20:51:00,
2013-05-12 17:01:00,89.2,88.2,29.92,SSE,157,6.0,14.0,97,0.00,,,-99.99,WeatherLink 5.5,2013-05-12 21:01:00,
2013-05-12 17:06:00,89.1,88.8,29.93,SSE,157,5.0,11.0,99,0.00,,,-99.99,WeatherLink 5.5,2013-05-12 21:06:00,
2013-05-12 17:16:00,87.7,87.7,29.92,SSE,157,5.0,11.0,100,0.00,,,-99.99,WeatherLink 5.5,2013-05-12 21:16:00,
2013-05-12 17:21:00,87.4,87.4,29.92,SSE,157,5.0,14.0,100,0.00,,,-99.99,WeatherLink 5.5,2013-05-12 21:21:00,
2013-05-12 17:31:00,86.6,-99.9,29.92,SSE,157,7.0,13.0,-999,0.00,,,-99.99,WeatherLink 5.5,2013-05-12 21:31:00,
2013-05-12 17:41:00,86.1,86.1,29.92,South,180,8.0,17.0,100,0.00,,,-99.99,WeatherLink 5.5,2013-05-12 21:41:00,
2013-05-12 17:51:00,84.7,84.7,29.93,SSW,202,5.0,12.0,100,0.00,,,-99.99,WeatherLink 5.5,2013-05-12 21:51:00,
2013-05-12 18:01:00,83.3,83.3,29.95,South,180,4.0,12.0,100,0.00,,,-99.99,WeatherLink 5.5,2013-05-12 22:01:00,
2013-05-12 18:06:00,83.0,83.0,29.95,South,180,3.0,9.0,100,0.00,,,-99.99,WeatherLink 5.5,2013-05-12 22:06:00,
2013-05-12 18:16:00,81.2,81.2,29.96,North,0,5.0,18.0,100,0.00,,,-99.99,WeatherLink 5.5,2013-05-12 22:16:00,
2013-05-12 18:21:00,79.4,79.4,29.96,North,0,8.0,17.0,100,0.12,,,-99.99,WeatherLink 5.5,2013-05-12 22:21:00,
2013-05-12 18:31:00,75.1,75.1,29.99,North,0,1.0,7.0,100,0.18,,,-99.99,WeatherLink 5.5,2013-05-12 22:31:00,
2013-05-12 18:41:00,74.0,74.0,29.99,ESE,112,2.0,8.0,100,0.20,,,-99.99,WeatherLink 5.5,2013-05-12 22:41:00,
2013-05-12 18:46:00,73.9,73.9,29.99,ESE,112,1.0,4.0,100,0.22,,,-99.99,WeatherLink 5.5,2013-05-12 22:46:00,
2013-05-12 18:56:00,73.7,73.7,29.99,SSE,157,1.0,5.0,100,0.23,,,-99.99,WeatherLink 5.5,2013-05-12 22:56:00,
2013-05-12 19:06:00,73.5,73.5,29.98,North,-999,0.0,0.0,100,0.25,,,-99.99,WeatherLink 5.5,2013-05-12 23:06:00,
2013-05-12 19:11:00,73.4,69.6,29.99,North,-999,0.0,0.0,88,0.26,,,-99.99,WeatherLink 5.5,2013-05-12 23:11:00,
2013-05-12 19:21:00,73.4,67.6,29.96,North,-999,0.0,0.0,82,0.15,,,-99.99,WeatherLink 5.5,2013-05-12 23:21:00,
2013-05-12 19:26:00,73.4,67.2,29.97,SSW,202,0.0,4.0,81,0.12,,,-99.99,WeatherLink 5.5,2013-05-12 23:26:00,
2013-05-12 19:36:00,73.3,67.1,29.98,North,-999,0.0,0.0,81,0.09,,,-99.99,WeatherLink 5.5,2013-05-12 23:36:00,
2013-05-12 19:46:00,73.5,67.3,29.99,SSW,202,0.0,2.0,81,0.08,,,-99.99,WeatherLink 5.5,2013-05-12 23:46:00,
2013-05-12 19:51:00,73.5,67.3,29.99,SSW,202,0.0,3.0,81,0.08,,,-99.99,WeatherLink 5.5,2013-05-12 23:51:00,
2013-05-12 20:01:00,73.5,-99.9,29.99,SSW,202,0.0,3.0,-999,0.07,,,-99.99,WeatherLink 5.5,2013-05-13 00:01:00,
2013-05-12 20:11:00,73.6,67.4,30.00,SSW,202,0.0,3.0,81,0.06,,,-99.99,WeatherLink 5.5,2013-05-13 00:11:00,
2013-05-12 20:16:00,73.5,67.3,29.99,SSW,202,1.0,5.0,81,0.06,,,-99.99,WeatherLink 5.5,2013-05-13 00:16:00,
2013-05-12 20:26:00,73.3,-99.9,30.00,SSW,202,2.0,6.0,-999,0.04,,,-99.99,WeatherLink 5.5,2013-05-13 00:26:00,
2013-05-12 20:36:00,73.0,-99.9,30.00,South,180,2.0,7.0,-999,0.03,,,-99.99,WeatherLink 5.5,2013-05-13 00:36:00,
2013-05-12 20:41:00,72.8,-99.9,30.00,SSW,202,3.0,6.0,-999,0.02,,,-99.99,WeatherLink 5.5,2013-05-13 00:41:00,
2013-05-12 20:51:00,72.8,-99.9,30.01,SSW,202,1.0,5.0,-999,0.02,,,-99.99,WeatherLink 5.5,2013-05-13 00:51:00,
2013-05-12 20:56:00,72.9,66.7,30.01,SSW,202,0.0,1.0,81,0.01,,,-99.99,WeatherLink 5.5,2013-05-13 00:56:00,
2013-05-12 21:06:00,72.9,-99.9,30.00,SSW,202,0.0,4.0,-999,0.01,,,-99.99,WeatherLink 5.5,2013-05-13 01:06:00,
2013-05-12 21:16:00,72.8,-99.9,30.00,North,-999,0.0,0.0,-999,0.00,,,-99.99,WeatherLink 5.5,2013-05-13 01:16:00,
2013-05-12 21:26:00,72.8,-99.9,30.00,North,-999,0.0,0.0,-999,0.00,,,-99.99,WeatherLink 5.5,2013-05-13 01:26:00,
2013-05-12 21:31:00,72.8,66.6,30.00,North,-999,0.0,0.0,81,0.00,,,-99.99,WeatherLink 5.5,2013-05-13 01:31:00,
2013-05-12 21:41:00,72.8,-99.9,30.00,North,-999,0.0,0.0,-999,0.00,,,-99.99,WeatherLink 5.5,2013-05-13 01:41:00,
2013-05-12 21:46:00,72.9,-99.9,30.00,North,-999,0.0,0.0,-999,0.00,,,-99.99,WeatherLink 5.5,2013-05-13 01:46:00,
2013-05-12 21:56:00,73.1,-99.9,30.01,SSW,202,0.0,2.0,-999,0.00,,,-99.99,WeatherLink 5.5,2013-05-13 01:56:00,
2013-05-12 22:06:00,73.1,-99.9,30.01,North,-999,0.0,0.0,-999,0.00,,,-99.99,WeatherLink 5.5,2013-05-13 02:06:00,
2013-05-12 22:11:00,73.1,-99.9,30.01,North,-999,0.0,0.0,-999,0.00,,,-99.99,WeatherLink 5.5,2013-05-13 02:11:00,
2013-05-12 22:21:00,73.2,-99.9,30.01,North,-999,0.0,0.0,-999,0.00,,,-99.99,WeatherLink 5.5,2013-05-13 02:21:00,
2013-05-12 22:31:00,73.2,-99.9,30.02,North,-999,0.0,0.0,-999,0.00,,,-99.99,WeatherLink 5.5,2013-05-13 02:31:00,
2013-05-12 22:36:00,73.2,-99.9,30.02,SSW,202,0.0,1.0,-999,0.00,,,-99.99,WeatherLink 5.5,2013-05-13 02:36:00,
2013-05-12 22:46:00,73.1,-99.9,30.02,North,-999,0.0,0.0,-999,0.00,,,-99.99,WeatherLink 5.5,2013-05-13 02:46:00,
2013-05-12 22:51:00,73.0,-99.9,30.03,North,-999,0.0,0.0,-999,0.00,,,-99.99,WeatherLink 5.5,2013-05-13 02:51:00,
2013-05-12 23:01:00,72.9,66.7,30.03,North,-999,0.0,0.0,81,0.00,,,-99.99,WeatherLink 5.5,2013-05-13 03:01:00,
2013-05-12 23:11:00,73.0,-99.9,30.03,North,-999,0.0,0.0,-999,0.00,,,-99.99,WeatherLink 5.5,2013-05-13 03:11:00,
2013-05-12 23:21:00,73.1,-99.9,30.03,North,-999,0.0,0.0,-999,0.00,,,-99.99,WeatherLink 5.5,2013-05-13 03:21:00,
2013-05-12 23:31:00,73.0,-99.9,30.03,North,-999,0.0,0.0,-999,0.00,,,-99.99,WeatherLink 5.5,2013-05-13 03:31:00,
2013-05-12 23:41:00,72.9,-99.9,30.03,North,-999,0.0,0.0,-999,0.00,,,-99.99,WeatherLink 5.5,2013-05-13 03:41:00,
2013-05-12 23:51:00,72.9,-99.9,30.02,North,-999,0.0,0.0,-999,0.00,,,-99.99,WeatherLink 5.5,2013-05-13 03:51:00,